Time;durP1;ratioP1;P1;durP2;ratioP2;P2;SDS_P1;SDS_P2;PMS_P1;PMS_P2;Temp;Humidity;BMP_temperature;BMP_pressure;BME280_temperature;BME280_humidity;BME280_pressure;Samples;Min_cycle;Max_cycle;Signal;HPM_P1;HPM_P2
2022/02/10 00:38:16;;;;;;;16.40;10.70;;;;;;;;;;2614288;54;21006;-77
2022/02/10 00:40:42;;;;;;;16.73;10.70;;;;;;;;;;2614531;47;20837;-78
2022/02/10 00:43:10;;;;;;;13.70;9.53;;;;;;;;;;2615097;39;20906;-78
2022/02/10 00:45:38;;;;;;;19.20;10.10;;;;;;;;;;2613918;54;20486;-77
2022/02/10 00:48:10;;;;;;;16.23;10.00;;;;;;;;;;2616008;39;20847;-78
2022/02/10 00:50:37;;;;;;;19.37;10.93;;;;;;;;;;2614874;39;20815;-77
2022/02/10 00:53:11;;;;;;;20.13;11.10;;;;;;;;;;2614593;54;20411;-78
2022/02/10 00:55:40;;;;;;;16.50;10.70;;;;;;;;;;2614043;54;20427;-79
2022/02/10 00:58:09;;;;;;;13.30;10.30;;;;;;;;;;2614427;47;20535;-78
2022/02/10 01:14:00;;;;;;;18.70;12.63;;;;;;;;;;2614661;54;20418;-77
2022/02/10 01:30:15;;;;;;;16.57;11.77;;;;;;;;;;2615157;46;20408;-77
2022/02/10 01:32:44;;;;;;;23.00;12.80;;;;;;;;;;2615405;54;20414;-77
2022/02/10 01:35:15;;;;;;;15.53;12.37;;;;;;;;;;2614795;47;20429;-78
2022/02/10 01:37:41;;;;;;;19.83;11.90;;;;;;;;;;2615034;54;21014;-78
2022/02/10 01:40:24;;;;;;;19.13;11.27;;;;;;;;;;2614372;47;20435;-76
2022/02/10 02:04:49;;;;;;;20.33;11.73;;;;;;;;;;2614773;54;20999;-78
2022/02/10 02:07:16;;;;;;;21.20;12.33;;;;;;;;;;2615007;54;20967;-77
2022/02/10 02:09:42;;;;;;;15.67;12.20;;;;;;;;;;2615152;39;20899;-77
2022/02/10 02:12:09;;;;;;;19.73;12.77;;;;;;;;;;2615215;54;20409;-77
2022/02/10 02:14:37;;;;;;;25.43;13.07;;;;;;;;;;2614312;47;20420;-79
2022/02/10 02:17:04;;;;;;;23.70;12.43;;;;;;;;;;2615031;54;20986;-77
2022/02/10 02:19:34;;;;;;;22.23;13.77;;;;;;;;;;2614764;54;20514;-77
2022/02/10 02:22:07;;;;;;;20.93;12.70;;;;;;;;;;2614643;54;20412;-77
2022/02/10 02:24:34;;;;;;;20.30;12.90;;;;;;;;;;2614554;54;20421;-78
2022/02/10 02:27:04;;;;;;;18.53;13.13;;;;;;;;;;2615497;39;20790;-78
2022/02/10 02:29:42;;;;;;;21.33;13.60;;;;;;;;;;2614398;54;21034;-78
2022/02/10 02:32:22;;;;;;;20.57;12.33;;;;;;;;;;2615116;51;20458;-78
2022/02/10 03:07:34;;;;;;;17.73;12.87;;;;;;;;;;2614664;46;21007;-78
2022/02/10 03:12:35;;;;;;;13.83;12.33;;;;;;;;;;2614758;47;20436;-78
2022/02/10 03:15:03;;;;;;;21.17;12.53;;;;;;;;;;2613868;54;20424;-78
2022/02/10 03:17:42;;;;;;;14.77;11.20;;;;;;;;;;2615399;54;20456;-77
2022/02/10 03:20:32;;;;;;;21.90;13.17;;;;;;;;;;2614110;47;20462;-77
2022/02/10 04:01:53;;;;;;;14.63;11.50;;;;;;;;;;2614090;54;20404;-78
2022/02/10 04:20:09;;;;;;;16.60;11.63;;;;;;;;;;2614174;39;20580;-77
2022/02/10 04:22:52;;;;;;;15.30;12.20;;;;;;;;;;2614190;39;20571;-77
2022/02/10 05:00:25;;;;;;;21.10;15.33;;;;;;;;;;2615149;54;20526;-78
2022/02/10 05:03:17;;;;;;;24.90;16.53;;;;;;;;;;2614162;54;21033;-76
2022/02/10 05:05:59;;;;;;;30.93;16.77;;;;;;;;;;2614814;54;20527;-78
2022/02/10 05:33:03;;;;;;;31.70;18.80;;;;;;;;;;2615274;54;20420;-77
2022/02/10 05:35:35;;;;;;;26.97;16.00;;;;;;;;;;2614000;47;20442;-78
2022/02/10 05:43:26;;;;;;;20.13;15.20;;;;;;;;;;2614645;54;20416;-77
2022/02/10 05:46:22;;;;;;;34.33;16.40;;;;;;;;;;2614491;54;20424;-76
2022/02/10 06:56:30;;;;;;;15.17;10.43;;;;;;;;;;2615267;54;20420;-78
2022/02/10 08:49:55;;;;;;;18.83;10.60;;;;;;;;;;2615154;54;20430;-78
2022/02/10 08:55:04;;;;;;;12.53;11.10;;;;;;;;;;2614233;47;20423;-79
2022/02/10 08:58:21;;;;;;;20.80;11.77;;;;;;;;;;2613997;54;20550;-77
2022/02/10 09:01:00;;;;;;;19.00;12.13;;;;;;;;;;2615095;54;20425;-78
2022/02/10 09:03:42;;;;;;;17.70;12.17;;;;;;;;;;2614466;54;20424;-78
2022/02/10 09:06:53;;;;;;;16.77;12.30;;;;;;;;;;2615526;39;20784;-78
2022/02/10 09:58:30;;;;;;;19.93;15.37;;;;;;;;;;2615162;39;20834;-77
2022/02/10 10:01:01;;;;;;;18.50;14.60;;;;;;;;;;2615193;46;20434;-78
2022/02/10 10:03:34;;;;;;;30.27;14.23;;;;;;;;;;2614875;54;20422;-78
2022/02/10 10:06:19;;;;;;;22.90;15.47;;;;;;;;;;2614990;49;20415;-78
2022/02/10 10:12:21;;;;;;;25.97;18.03;;;;;;;;;;2615541;54;20416;-77
2022/02/10 10:14:12;;;;;;;28.63;18.00;;;;;;;;;;2615244;54;20442;-78
2022/02/10 10:19:31;;;;;;;22.37;17.87;;;;;;;;;;2614583;54;20431;-78
2022/02/10 10:55:50;;;;;;;27.60;18.40;;;;;;;;;;2613805;47;20430;-77
2022/02/10 10:58:29;;;;;;;19.20;16.83;;;;;;;;;;2614257;39;20846;-78
2022/02/10 11:03:35;;;;;;;27.83;17.83;;;;;;;;;;2612962;54;20441;-77
2022/02/10 11:25:06;;;;;;;25.90;18.50;;;;;;;;;;2614429;50;20510;-76
2022/02/10 11:36:51;;;;;;;26.80;20.50;;;;;;;;;;2614095;46;20443;-76
2022/02/10 11:42:39;;;;;;;25.47;18.73;;;;;;;;;;2614558;47;20936;-77
2022/02/10 12:44:01;;;;;;;17.63;13.00;;;;;;;;;;2614910;39;20790;-77
2022/02/10 13:23:22;;;;;;;13.40;10.33;;;;;;;;;;2614620;54;20935;-75
2022/02/10 14:28:10;;;;;;;8.80;7.80;;;;;;;;;;2613745;54;20455;-77
2022/02/10 14:30:36;;;;;;;8.20;6.80;;;;;;;;;;2616081;31;20978;-76
2022/02/10 14:33:02;;;;;;;11.07;8.70;;;;;;;;;;2614063;51;20428;-76
2022/02/10 14:35:36;;;;;;;9.07;7.47;;;;;;;;;;2614344;47;20434;-77
2022/02/10 14:41:08;;;;;;;10.73;6.90;;;;;;;;;;2614378;39;21211;-77
2022/02/10 15:12:19;;;;;;;14.80;9.60;;;;;;;;;;2614518;47;20519;-77
2022/02/10 15:17:10;;;;;;;12.83;10.80;;;;;;;;;;2614878;54;21393;-77
2022/02/10 15:31:59;;;;;;;14.67;9.30;;;;;;;;;;2616599;54;20455;-77
2022/02/10 15:50:44;;;;;;;11.10;7.37;;;;;;;;;;2613560;54;20426;-76
2022/02/10 16:14:49;;;;;;;14.47;11.20;;;;;;;;;;2613016;54;21004;-76
2022/02/10 16:17:05;;;;;;;18.07;13.50;;;;;;;;;;2613883;54;20429;-76
2022/02/10 16:19:32;;;;;;;16.60;10.73;;;;;;;;;;2613883;54;20975;-76
2022/02/10 16:22:05;;;;;;;18.33;11.10;;;;;;;;;;2613955;54;20411;-77
2022/02/10 16:24:36;;;;;;;17.40;10.27;;;;;;;;;;2613483;50;20508;-76
2022/02/10 16:27:13;;;;;;;18.50;11.70;;;;;;;;;;2614226;54;20441;-76
2022/02/10 16:29:40;;;;;;;14.30;9.97;;;;;;;;;;2613687;54;20411;-76
2022/02/10 16:32:06;;;;;;;13.40;9.70;;;;;;;;;;2612819;47;20424;-76
2022/02/10 16:34:34;;;;;;;16.40;10.30;;;;;;;;;;2613933;54;20411;-77
2022/02/10 16:37:01;;;;;;;18.57;9.97;;;;;;;;;;2613028;54;20427;-77
2022/02/10 16:39:34;;;;;;;15.23;9.37;;;;;;;;;;2613393;51;20425;-77
2022/02/10 16:42:04;;;;;;;16.63;10.23;;;;;;;;;;2613646;54;20424;-75
2022/02/10 16:44:30;;;;;;;16.87;11.87;;;;;;;;;;2612994;47;20443;-79
2022/02/10 16:46:57;;;;;;;18.80;10.70;;;;;;;;;;2612761;54;20960;-78
2022/02/10 16:49:23;;;;;;;16.00;10.20;;;;;;;;;;2613587;54;20415;-76
2022/02/10 16:51:50;;;;;;;15.70;10.37;;;;;;;;;;2614085;54;20446;-77
2022/02/10 16:54:24;;;;;;;18.70;10.63;;;;;;;;;;2613767;47;20419;-77
2022/02/10 16:59:47;;;;;;;15.13;10.03;;;;;;;;;;2613360;54;20437;-76
2022/02/10 17:20:50;;;;;;;15.03;9.90;;;;;;;;;;2614327;54;20455;-77
2022/02/10 17:26:21;;;;;;;15.30;10.87;;;;;;;;;;2614347;54;20954;-77
2022/02/10 17:28:48;;;;;;;14.93;8.83;;;;;;;;;;2614458;54;21074;-76
2022/02/10 17:34:22;;;;;;;17.23;9.40;;;;;;;;;;2614325;54;20550;-75
2022/02/10 17:37:15;;;;;;;13.07;8.50;;;;;;;;;;2613733;54;20431;-77
2022/02/10 17:53:37;;;;;;;11.47;7.70;;;;;;;;;;2612935;47;20427;-77
2022/02/10 17:56:04;;;;;;;12.97;10.17;;;;;;;;;;2613443;47;20546;-78
2022/02/10 17:58:31;;;;;;;17.93;8.27;;;;;;;;;;2614169;54;20415;-77
2022/02/10 18:00:59;;;;;;;7.50;5.03;;;;;;;;;;2614315;54;20428;-76
2022/02/10 18:03:26;;;;;;;4.47;3.60;;;;;;;;;;2614238;47;20411;-77
2022/02/10 18:08:26;;;;;;;3.60;2.80;;;;;;;;;;2614385;54;20443;-77
2022/02/10 18:16:14;;;;;;;2.63;2.43;;;;;;;;;;2614609;46;20455;-75
2022/02/10 18:18:48;;;;;;;11.67;5.07;;;;;;;;;;2614233;46;20419;-76
2022/02/10 19:07:20;;;;;;;11.73;8.57;;;;;;;;;;2613480;49;20443;-77
2022/02/10 19:09:48;;;;;;;13.60;8.47;;;;;;;;;;2614482;54;20524;-76
2022/02/10 19:12:25;;;;;;;11.23;7.10;;;;;;;;;;2614605;39;21095;-76
2022/02/10 19:15:17;;;;;;;10.50;7.57;;;;;;;;;;2614840;54;20419;-76
2022/02/10 19:17:38;;;;;;;13.27;6.77;;;;;;;;;;2614424;54;20443;-76
2022/02/10 19:20:05;;;;;;;12.03;8.07;;;;;;;;;;2613862;54;20442;-75
2022/02/10 19:22:33;;;;;;;16.97;8.13;;;;;;;;;;2614125;47;20449;-77
2022/02/10 19:24:59;;;;;;;5.43;4.80;;;;;;;;;;2612544;46;20464;-75
2022/02/10 19:27:25;;;;;;;13.77;7.40;;;;;;;;;;2614084;47;20431;-76
2022/02/10 19:29:57;;;;;;;6.87;5.63;;;;;;;;;;2613259;54;20435;-77
2022/02/10 19:32:26;;;;;;;9.47;5.83;;;;;;;;;;2612463;39;20786;-76
2022/02/10 19:34:54;;;;;;;8.77;5.60;;;;;;;;;;2613538;54;20415;-75
2022/02/10 19:37:21;;;;;;;8.13;4.97;;;;;;;;;;2614132;54;20482;-75
2022/02/10 19:39:53;;;;;;;5.37;4.13;;;;;;;;;;2614788;54;20395;-77
2022/02/10 19:42:21;;;;;;;12.50;4.10;;;;;;;;;;2613076;47;20423;-76
2022/02/10 19:44:47;;;;;;;8.43;4.30;;;;;;;;;;2614386;54;20418;-75
2022/02/10 19:47:13;;;;;;;5.90;4.03;;;;;;;;;;2614117;54;20436;-76
2022/02/10 19:49:42;;;;;;;4.47;3.30;;;;;;;;;;2614470;54;20432;-76
2022/02/10 19:52:09;;;;;;;5.60;3.30;;;;;;;;;;2614493;54;20424;-76
2022/02/10 19:54:40;;;;;;;4.63;3.93;;;;;;;;;;2613730;54;20419;-76
2022/02/10 19:57:08;;;;;;;7.93;4.33;;;;;;;;;;2613556;54;20956;-76
2022/02/10 19:59:34;;;;;;;5.63;4.13;;;;;;;;;;2613761;47;20414;-74
2022/02/10 20:02:03;;;;;;;8.57;4.80;;;;;;;;;;2613941;54;20420;-75
2022/02/10 20:04:30;;;;;;;5.53;3.97;;;;;;;;;;2614417;51;20451;-76
2022/02/10 20:06:57;;;;;;;5.93;4.30;;;;;;;;;;2613836;47;20431;-75
2022/02/10 20:09:24;;;;;;;8.70;5.17;;;;;;;;;;2613528;54;20438;-77
2022/02/10 20:11:51;;;;;;;7.63;5.63;;;;;;;;;;2613833;54;20469;-76
2022/02/10 20:14:23;;;;;;;8.47;6.50;;;;;;;;;;2614509;54;20410;-76
2022/02/10 20:16:55;;;;;;;8.80;5.83;;;;;;;;;;2613040;54;20423;-75
2022/02/10 20:19:21;;;;;;;8.70;6.13;;;;;;;;;;2613560;54;20398;-76
2022/02/10 20:21:49;;;;;;;9.20;6.33;;;;;;;;;;2613763;39;20868;-76
2022/02/10 20:24:15;;;;;;;8.77;6.10;;;;;;;;;;2613607;39;20836;-77
2022/02/10 20:26:42;;;;;;;7.80;5.73;;;;;;;;;;2614364;39;20799;-77
2022/02/10 20:29:10;;;;;;;6.53;5.37;;;;;;;;;;2614053;54;20474;-76
2022/02/10 20:31:39;;;;;;;7.17;5.23;;;;;;;;;;2613608;47;20534;-76
2022/02/10 20:34:12;;;;;;;9.47;4.20;;;;;;;;;;2613482;47;20423;-75
2022/02/10 20:36:38;;;;;;;4.90;3.97;;;;;;;;;;2613337;54;20538;-76
2022/02/10 20:39:06;;;;;;;6.33;4.60;;;;;;;;;;2613756;51;20439;-77
2022/02/10 20:41:34;;;;;;;4.70;3.27;;;;;;;;;;2613535;54;20421;-75
2022/02/10 20:44:02;;;;;;;4.50;3.17;;;;;;;;;;2613451;54;20434;-75
2022/02/10 20:46:30;;;;;;;2.83;2.47;;;;;;;;;;2613547;47;20559;-75
2022/02/10 20:48:57;;;;;;;3.30;2.40;;;;;;;;;;2613351;54;20798;-76
2022/02/10 20:51:23;;;;;;;5.00;2.50;;;;;;;;;;2612149;47;20440;-75
2022/02/10 20:53:51;;;;;;;5.63;2.63;;;;;;;;;;2612968;47;20423;-75
2022/02/10 20:56:20;;;;;;;4.10;2.80;;;;;;;;;;2613240;54;20435;-76
2022/02/10 20:58:54;;;;;;;5.63;2.70;;;;;;;;;;2614851;54;20419;-77
2022/02/10 21:01:20;;;;;;;4.60;2.77;;;;;;;;;;2612596;54;20431;-74
2022/02/10 21:03:46;;;;;;;6.57;3.10;;;;;;;;;;2613780;47;20414;-76
2022/02/10 21:08:55;;;;;;;7.33;3.67;;;;;;;;;;2614818;46;20443;-76
2022/02/10 21:11:24;;;;;;;6.80;3.40;;;;;;;;;;2613150;47;20503;-76
2022/02/10 21:13:51;;;;;;;10.73;5.83;;;;;;;;;;2613723;47;20439;-75
2022/02/10 21:16:17;;;;;;;31.37;14.47;;;;;;;;;;2613588;54;20409;-76
2022/02/10 21:18:45;;;;;;;18.50;7.30;;;;;;;;;;2614410;39;20789;-76
2022/02/10 21:21:15;;;;;;;17.03;9.97;;;;;;;;;;2614129;47;20547;-76
2022/02/10 21:23:56;;;;;;;12.83;6.50;;;;;;;;;;2614302;54;20505;-75
2022/02/10 21:26:29;;;;;;;8.17;4.93;;;;;;;;;;2613745;47;20447;-76
2022/02/10 21:29:02;;;;;;;5.57;5.00;;;;;;;;;;2614519;39;21141;-75
2022/02/10 21:31:29;;;;;;;7.83;5.77;;;;;;;;;;2612847;47;20430;-75
2022/02/10 21:39:24;;;;;;;10.10;6.10;;;;;;;;;;2614288;39;20901;-76
2022/02/10 22:19:13;;;;;;;6.57;2.97;;;;;;;;;;2614343;54;20470;-74
2022/02/10 22:21:50;;;;;;;7.63;3.17;;;;;;;;;;2615197;39;21133;-76
2022/02/10 22:24:17;;;;;;;6.40;2.83;;;;;;;;;;2614307;47;20410;-76
2022/02/10 22:26:44;;;;;;;7.50;3.00;;;;;;;;;;2613275;54;20422;-76
2022/02/10 22:29:25;;;;;;;6.53;3.53;;;;;;;;;;2616006;31;20873;-77
2022/02/10 22:34:38;;;;;;;3.97;2.63;;;;;;;;;;2613609;54;20940;-75
2022/02/10 22:37:07;;;;;;;5.93;2.10;;;;;;;;;;2614047;47;20438;-76
2022/02/10 22:39:38;;;;;;;12.13;2.93;;;;;;;;;;2613912;47;20433;-75
2022/02/10 22:42:06;;;;;;;12.00;3.60;;;;;;;;;;2614807;47;20455;-75
2022/02/10 22:44:32;;;;;;;8.03;2.93;;;;;;;;;;2614446;47;20480;-76
2022/02/10 22:47:01;;;;;;;6.10;3.10;;;;;;;;;;2614054;47;20427;-75
2022/02/10 22:49:27;;;;;;;6.00;3.00;;;;;;;;;;2613809;54;20431;-76
2022/02/10 22:51:54;;;;;;;15.70;4.13;;;;;;;;;;2614155;47;20403;-75
2022/02/10 22:54:20;;;;;;;5.53;2.80;;;;;;;;;;2614625;47;20509;-74
2022/02/10 22:56:47;;;;;;;3.97;3.50;;;;;;;;;;2613364;47;20542;-75
2022/02/10 22:59:15;;;;;;;4.53;3.30;;;;;;;;;;2613560;47;20497;-75
2022/02/10 23:01:41;;;;;;;4.17;2.83;;;;;;;;;;2615114;31;20912;-76
2022/02/10 23:04:07;;;;;;;5.73;3.27;;;;;;;;;;2614227;54;20427;-75
2022/02/10 23:06:34;;;;;;;9.10;5.00;;;;;;;;;;2615243;54;20550;-76
2022/02/10 23:09:23;;;;;;;8.00;3.97;;;;;;;;;;2614845;47;20446;-75
2022/02/10 23:11:49;;;;;;;7.40;4.20;;;;;;;;;;2613055;54;20424;-76
2022/02/10 23:14:16;;;;;;;8.87;4.20;;;;;;;;;;2614232;54;20429;-76
2022/02/10 23:16:45;;;;;;;8.80;4.80;;;;;;;;;;2614689;54;20442;-76
2022/02/10 23:19:13;;;;;;;7.70;4.13;;;;;;;;;;2614753;54;20999;-74
2022/02/10 23:21:39;;;;;;;7.93;4.60;;;;;;;;;;2614718;54;20436;-75
2022/02/10 23:24:06;;;;;;;9.40;5.27;;;;;;;;;;2614613;54;20523;-76
2022/02/10 23:26:32;;;;;;;7.93;7.13;;;;;;;;;;2614331;54;20543;-77
2022/02/10 23:28:59;;;;;;;8.17;5.07;;;;;;;;;;2614812;54;20451;-76
2022/02/10 23:31:26;;;;;;;7.03;4.50;;;;;;;;;;2614351;47;20434;-75
2022/02/10 23:33:59;;;;;;;5.83;4.17;;;;;;;;;;2613604;47;20439;-76
2022/02/10 23:36:48;;;;;;;12.13;5.33;;;;;;;;;;2613858;54;20519;-76
2022/02/10 23:39:26;;;;;;;7.50;4.53;;;;;;;;;;2614261;47;20443;-76
2022/02/10 23:42:03;;;;;;;5.37;4.67;;;;;;;;;;2615003;54;20462;-76
2022/02/10 23:44:59;;;;;;;7.10;5.70;;;;;;;;;;2615896;54;20415;-75
2022/02/10 23:47:25;;;;;;;11.53;4.70;;;;;;;;;;2611819;47;20415;-76
2022/02/10 23:49:52;;;;;;;7.83;4.83;;;;;;;;;;2613406;39;20873;-76
2022/02/10 23:52:19;;;;;;;8.40;5.20;;;;;;;;;;2613831;47;20407;-74
2022/02/10 23:54:50;;;;;;;11.43;6.60;;;;;;;;;;2613276;54;20547;-77
